createdAt,value
2016-08-06T00:00:31.909Z,-79
2016-08-06T00:01:31.967Z,-79
2016-08-06T00:02:32.009Z,-79
2016-08-06T00:03:31.922Z,-80
2016-08-06T00:04:32.169Z,-80
2016-08-06T00:05:32.094Z,-80
2016-08-06T00:06:32.098Z,-79
2016-08-06T00:07:32.028Z,-79
2016-08-06T00:08:31.947Z,-80
2016-08-06T00:09:32.018Z,-79
2016-08-06T00:10:32.022Z,-79
2016-08-06T00:11:32.013Z,-79
2016-08-06T00:12:32.106Z,-79
2016-08-06T00:13:32.114Z,-79
2016-08-06T00:14:32.237Z,-79
2016-08-06T00:15:31.953Z,-79
2016-08-06T00:16:32.029Z,-79
2016-08-06T00:17:32.133Z,-80
2016-08-06T00:18:32.219Z,-79
2016-08-06T00:19:32.132Z,-79
2016-08-06T00:20:32.144Z,-79
2016-08-06T00:21:32.053Z,-79
2016-08-06T00:22:32.148Z,-79
2016-08-06T00:23:32.055Z,-79
2016-08-06T00:24:32.059Z,-79
2016-08-06T00:25:32.052Z,-79
2016-08-06T00:26:32.232Z,-79
2016-08-06T00:27:32.150Z,-79
2016-08-06T00:28:32.076Z,-79
2016-08-06T00:29:32.149Z,-79
2016-08-06T00:30:32.167Z,-79
2016-08-06T00:31:32.172Z,-79
2016-08-06T00:32:32.026Z,-79
2016-08-06T00:33:32.260Z,-79
2016-08-06T00:34:32.085Z,-79
2016-08-06T00:35:32.086Z,-79
2016-08-06T00:36:32.178Z,-79
2016-08-06T00:37:32.100Z,-79
2016-08-06T00:38:32.088Z,-79
2016-08-06T00:39:32.093Z,-79
2016-08-06T00:40:32.273Z,-79
2016-08-06T00:41:32.106Z,-79
2016-08-06T00:42:32.104Z,-79
2016-08-06T00:43:32.103Z,-79
2016-08-06T00:44:32.113Z,-79
2016-08-06T00:45:32.126Z,-79
2016-08-06T00:46:32.204Z,-79
2016-08-06T00:47:32.204Z,-79
2016-08-06T00:48:32.136Z,-79
2016-08-06T00:49:32.123Z,-79
2016-08-06T00:50:32.219Z,-79
2016-08-06T00:51:32.513Z,-79
2016-08-06T00:52:32.162Z,-79
2016-08-06T00:53:32.153Z,-80
2016-08-06T00:54:32.062Z,-79
2016-08-06T00:55:32.265Z,-79
2016-08-06T00:56:32.148Z,-80
2016-08-06T00:57:32.236Z,-79
2016-08-06T00:58:32.153Z,-79
2016-08-06T00:59:32.074Z,-79
2016-08-06T01:00:32.195Z,-79
2016-08-06T01:01:32.164Z,-79
2016-08-06T01:02:32.163Z,-79
2016-08-06T01:03:32.170Z,-79
2016-08-06T01:04:32.183Z,-79
2016-08-06T01:05:32.348Z,-79
2016-08-06T01:06:32.272Z,-79
2016-08-06T01:07:32.173Z,-79
2016-08-06T01:08:32.274Z,-79
2016-08-06T01:09:32.360Z,-79
2016-08-06T01:10:32.187Z,-79
2016-08-06T01:11:32.207Z,-79
2016-08-06T01:12:32.134Z,-79
2016-08-06T01:13:32.288Z,-79
2016-08-06T01:14:32.195Z,-79
2016-08-06T01:15:32.206Z,-80
2016-08-06T01:16:32.126Z,-80
2016-08-06T01:17:32.289Z,-79
2016-08-06T01:18:32.215Z,-79
2016-08-06T01:19:32.389Z,-79
2016-08-06T01:20:32.308Z,-79
2016-08-06T01:21:32.147Z,-79
2016-08-06T01:22:32.311Z,-79
2016-08-06T01:23:32.308Z,-79
2016-08-06T01:24:32.312Z,-79
2016-08-06T01:25:32.408Z,-79
2016-08-06T01:26:32.145Z,-80
2016-08-06T01:27:32.233Z,-79
2016-08-06T01:28:32.233Z,-80
2016-08-06T01:29:32.329Z,-79
2016-08-06T01:30:32.259Z,-79
2016-08-06T01:31:32.282Z,-79
2016-08-06T01:32:32.416Z,-79
2016-08-06T01:33:32.330Z,-79
2016-08-06T01:34:32.183Z,-80
2016-08-06T01:35:32.356Z,-79
2016-08-06T01:36:32.339Z,-79
2016-08-06T01:37:32.351Z,-79
2016-08-06T01:38:32.180Z,-79
2016-08-06T01:39:32.353Z,-79
2016-08-06T01:40:32.443Z,-79
2016-08-06T01:41:32.282Z,-79
2016-08-06T01:42:32.444Z,-80
2016-08-06T01:43:32.370Z,-80
2016-08-06T01:44:32.282Z,-79
2016-08-06T01:45:32.314Z,-79
2016-08-06T01:46:32.381Z,-80
2016-08-06T01:47:32.418Z,-79
2016-08-06T01:48:32.294Z,-80
2016-08-06T01:49:32.388Z,-79
2016-08-06T01:50:32.293Z,-79
2016-08-06T01:51:32.302Z,-79
2016-08-06T01:52:32.368Z,-79
2016-08-06T01:53:32.244Z,-79
2016-08-06T01:54:32.413Z,-79
2016-08-06T01:55:32.454Z,-79
2016-08-06T01:56:32.408Z,-79
2016-08-06T01:57:32.400Z,-79
2016-08-06T01:58:32.414Z,-79
2016-08-06T01:59:32.335Z,-80
2016-08-06T02:00:32.352Z,-80
2016-08-06T02:01:32.502Z,-79
2016-08-06T02:02:32.431Z,-79
2016-08-06T02:03:32.437Z,-79
2016-08-06T02:04:32.416Z,-80
2016-08-06T02:05:32.354Z,-79
2016-08-06T02:06:32.258Z,-79
2016-08-06T02:07:32.358Z,-79
2016-08-06T02:08:32.428Z,-79
2016-08-06T02:09:32.361Z,-79
2016-08-06T02:10:32.269Z,-79
2016-08-06T02:11:32.450Z,-79
2016-08-06T02:12:32.452Z,-80
2016-08-06T02:13:32.277Z,-79
2016-08-06T02:14:32.282Z,-79
2016-08-06T02:16:32.456Z,-80
2016-08-06T02:17:32.369Z,-79
2016-08-06T02:18:32.281Z,-79
2016-08-06T02:19:32.468Z,-79
2016-08-06T02:20:32.465Z,-79
2016-08-06T02:21:32.377Z,-79
2016-08-06T02:22:32.392Z,-79
2016-08-06T02:23:32.450Z,-80
2016-08-06T02:24:32.447Z,-79
2016-08-06T02:25:32.471Z,-80
2016-08-06T02:26:32.539Z,-79
2016-08-06T02:27:32.477Z,-80
2016-08-06T02:28:32.475Z,-79
2016-08-06T02:29:32.394Z,-79
2016-08-06T02:31:32.472Z,-79
2016-08-06T02:32:32.386Z,-79
2016-08-06T02:33:32.498Z,-79
2016-08-06T02:34:32.478Z,-80
2016-08-06T02:35:32.496Z,-79
2016-08-06T02:36:32.333Z,-80
2016-08-06T02:37:32.554Z,-79
2016-08-06T02:38:32.490Z,-80
2016-08-06T02:39:32.416Z,-80
2016-08-06T02:40:32.417Z,-80
2016-08-06T02:41:32.374Z,-79
2016-08-06T02:42:32.412Z,-79
2016-08-06T02:43:32.355Z,-80
2016-08-06T02:44:32.503Z,-80
2016-08-06T02:46:32.435Z,-80
2016-08-06T02:47:32.441Z,-79
2016-08-06T02:48:32.364Z,-79
2016-08-06T02:49:32.439Z,-80
2016-08-06T02:50:32.520Z,-79
2016-08-06T02:51:32.603Z,-79
2016-08-06T02:52:32.374Z,-79
2016-08-06T02:53:32.599Z,-79
2016-08-06T02:54:32.386Z,-79
2016-08-06T02:55:33.380Z,-79
2016-08-06T02:56:32.473Z,-79
2016-08-06T02:57:32.460Z,-79
2016-08-06T02:58:32.559Z,-79
2016-08-06T02:59:32.554Z,-79
2016-08-06T03:01:32.468Z,-79
2016-08-06T03:02:32.547Z,-79
2016-08-06T03:03:32.485Z,-79
2016-08-06T03:04:32.639Z,-79
2016-08-06T03:05:32.563Z,-80
2016-08-06T03:06:32.483Z,-79
2016-08-06T03:07:32.435Z,-79
2016-08-06T03:08:32.591Z,-79
2016-08-06T03:09:32.574Z,-79
2016-08-06T03:10:32.505Z,-80
2016-08-06T03:11:32.644Z,-79
2016-08-06T03:12:32.665Z,-79
2016-08-06T03:13:32.580Z,-79
2016-08-06T03:14:32.465Z,-79
2016-08-06T03:16:32.657Z,-80
2016-08-06T03:17:32.515Z,-79
2016-08-06T03:18:32.671Z,-79
2016-08-06T03:19:32.534Z,-79
2016-08-06T03:20:32.676Z,-79
2016-08-06T03:21:37.249Z,-79
2016-08-06T03:22:32.535Z,-79
2016-08-06T03:23:32.570Z,-79
2016-08-06T03:24:32.468Z,-79
2016-08-06T03:25:32.624Z,-79
2016-08-06T03:26:32.546Z,-79
2016-08-06T03:27:32.552Z,-79
2016-08-06T03:28:32.558Z,-79
2016-08-06T03:29:32.559Z,-79
2016-08-06T03:30:32.484Z,-80
2016-08-06T03:31:32.717Z,-80
2016-08-06T03:32:32.729Z,-79
2016-08-06T03:33:32.660Z,-79
2016-08-06T03:34:32.563Z,-80
2016-08-06T03:35:32.504Z,-79
2016-08-06T03:36:32.577Z,-79
2016-08-06T03:37:32.664Z,-80
2016-08-06T03:38:32.656Z,-80
2016-08-06T03:39:32.672Z,-79
2016-08-06T03:40:32.679Z,-79
2016-08-06T03:41:32.583Z,-79
2016-08-06T03:42:32.673Z,-79
2016-08-06T03:43:32.600Z,-80
2016-08-06T03:44:32.679Z,-79
2016-08-06T03:45:32.597Z,-79
2016-08-06T03:46:32.526Z,-79
2016-08-06T03:47:32.603Z,-79
2016-08-06T03:48:32.707Z,-79
2016-08-06T03:49:32.536Z,-80
2016-08-06T03:50:32.609Z,-79
2016-08-06T03:51:32.688Z,-80
2016-08-06T03:52:32.609Z,-79
2016-08-06T03:53:32.685Z,-79
2016-08-06T03:54:32.714Z,-79
2016-08-06T03:55:32.790Z,-79
2016-08-06T03:56:32.827Z,-80
2016-08-06T03:57:32.730Z,-79
2016-08-06T03:58:32.729Z,-80
2016-08-06T03:59:32.744Z,-79
2016-08-06T04:00:32.719Z,-79
2016-08-06T04:01:32.709Z,-79
2016-08-06T04:02:32.747Z,-79
2016-08-06T04:03:32.804Z,-79
2016-08-06T04:04:32.751Z,-79
2016-08-06T04:05:32.729Z,-79
2016-08-06T04:06:32.757Z,-79
2016-08-06T04:07:32.725Z,-79
2016-08-06T04:08:32.731Z,-79
2016-08-06T04:09:32.739Z,-80
2016-08-06T04:10:32.826Z,-80
2016-08-06T04:11:32.745Z,-79
2016-08-06T04:12:32.762Z,-79
2016-08-06T04:13:32.614Z,-79
2016-08-06T04:14:32.760Z,-79
2016-08-06T04:15:32.840Z,-79
2016-08-06T04:16:32.605Z,-79
2016-08-06T04:17:32.854Z,-80
2016-08-06T04:18:32.623Z,-79
2016-08-06T04:19:32.709Z,-79
2016-08-06T04:20:32.707Z,-80
2016-08-06T04:21:32.704Z,-79
2016-08-06T04:22:32.874Z,-80
2016-08-06T04:23:32.708Z,-79
2016-08-06T04:24:32.706Z,-79
2016-08-06T04:25:32.784Z,-79
2016-08-06T04:26:32.715Z,-80
2016-08-06T04:27:32.670Z,-80
2016-08-06T04:28:32.889Z,-80
2016-08-06T04:29:32.814Z,-79
2016-08-06T04:30:32.745Z,-79
2016-08-06T04:31:32.731Z,-79
2016-08-06T04:32:32.729Z,-79
2016-08-06T04:33:32.818Z,-80
2016-08-06T04:34:32.832Z,-79
2016-08-06T04:35:32.809Z,-79
2016-08-06T04:36:32.746Z,-79
2016-08-06T04:37:32.750Z,-80
2016-08-06T04:38:32.747Z,-80
2016-08-06T04:39:32.914Z,-79
2016-08-06T04:40:32.761Z,-79
2016-08-06T04:41:32.825Z,-80
2016-08-06T04:42:32.754Z,-79
2016-08-06T04:43:32.838Z,-80
2016-08-06T04:44:32.838Z,-79
2016-08-06T04:45:32.766Z,-79
2016-08-06T04:46:32.694Z,-79
2016-08-06T04:47:32.848Z,-79
2016-08-06T04:48:32.780Z,-80
2016-08-06T04:49:32.859Z,-80
2016-08-06T04:50:32.788Z,-79
2016-08-06T04:51:32.885Z,-93
2016-08-06T04:52:32.864Z,-91
2016-08-06T04:53:32.862Z,-91
2016-08-06T04:54:32.950Z,-91
2016-08-06T04:55:32.875Z,-90
2016-08-06T04:56:33.009Z,-90
2016-08-06T04:57:32.961Z,-90
2016-08-06T04:58:32.818Z,-90
2016-08-06T04:59:32.827Z,-90
2016-08-06T05:00:32.808Z,-91
2016-08-06T05:01:32.821Z,-91
2016-08-06T05:02:32.887Z,-91
2016-08-06T05:03:32.890Z,-90
2016-08-06T05:04:32.749Z,-90
2016-08-06T05:05:32.744Z,-92
2016-08-06T05:06:32.838Z,-90
2016-08-06T05:07:32.917Z,-90
2016-08-06T05:08:32.906Z,-90
2016-08-06T05:09:32.909Z,-89
2016-08-06T05:10:32.995Z,-91
2016-08-06T05:11:32.782Z,-91
2016-08-06T05:12:32.989Z,-90
2016-08-06T05:13:32.841Z,-90
2016-08-06T05:14:32.855Z,-92
2016-08-06T05:15:32.936Z,-91
2016-08-06T05:16:32.926Z,-91
2016-08-06T05:17:32.883Z,-91
2016-08-06T05:18:32.866Z,-91
2016-08-06T05:19:32.883Z,-91
2016-08-06T05:20:32.951Z,-90
2016-08-06T05:21:32.871Z,-91
2016-08-06T05:22:32.882Z,-91
2016-08-06T05:23:32.810Z,-90
2016-08-06T05:24:32.877Z,-90
2016-08-06T05:25:32.974Z,-92
2016-08-06T05:26:32.880Z,-90
2016-08-06T05:27:33.035Z,-91
2016-08-06T05:28:33.051Z,-90
2016-08-06T05:29:32.982Z,-90
2016-08-06T05:30:32.929Z,-90
2016-08-06T05:31:32.916Z,-90
2016-08-06T05:32:32.996Z,-91
2016-08-06T05:33:32.905Z,-90
2016-08-06T05:34:32.993Z,-91
2016-08-06T05:35:32.905Z,-91
2016-08-06T05:36:33.007Z,-91
2016-08-06T05:37:33.059Z,-91
2016-08-06T05:38:32.952Z,-91
2016-08-06T05:39:32.936Z,-91
2016-08-06T05:40:33.073Z,-91
2016-08-06T05:41:32.927Z,-91
2016-08-06T05:42:33.083Z,-91
2016-08-06T05:43:32.930Z,-91
2016-08-06T05:44:33.012Z,-91
2016-08-06T05:45:33.018Z,-91
2016-08-06T05:46:32.945Z,-91
2016-08-06T05:47:33.025Z,-91
2016-08-06T05:48:32.873Z,-91
2016-08-06T05:49:33.022Z,-90
2016-08-06T05:50:32.966Z,-90
2016-08-06T05:51:33.045Z,-91
2016-08-06T05:52:32.958Z,-90
2016-08-06T05:53:33.108Z,-90
2016-08-06T05:54:33.044Z,-91
2016-08-06T05:55:32.967Z,-90
2016-08-06T05:56:33.165Z,-90
2016-08-06T05:57:32.975Z,-90
2016-08-06T05:58:33.132Z,-91
2016-08-06T05:59:33.053Z,-90
2016-08-06T06:00:32.978Z,-90
2016-08-06T06:01:32.898Z,-91
2016-08-06T06:02:32.999Z,-90
2016-08-06T06:03:33.084Z,-89
2016-08-06T06:04:33.073Z,-90
2016-08-06T06:05:32.995Z,-90
2016-08-06T06:06:33.070Z,-90
2016-08-06T06:07:33.067Z,-90
2016-08-06T06:08:33.094Z,-90
2016-08-06T06:09:33.110Z,-90
2016-08-06T06:10:33.011Z,-90
2016-08-06T06:11:33.106Z,-90
2016-08-06T06:12:32.940Z,-90
2016-08-06T06:13:32.948Z,-90
2016-08-06T06:14:33.175Z,-90
2016-08-06T06:15:33.101Z,-90
2016-08-06T06:17:32.944Z,-90
2016-08-06T06:18:33.114Z,-91
2016-08-06T06:19:32.979Z,-90
2016-08-06T06:20:33.184Z,-91
2016-08-06T06:21:33.035Z,-89
2016-08-06T06:22:33.186Z,-90
2016-08-06T06:23:33.051Z,-91
2016-08-06T06:24:33.115Z,-90
2016-08-06T06:25:33.205Z,-91
2016-08-06T06:26:32.985Z,-91
2016-08-06T06:27:33.123Z,-90
2016-08-06T06:28:33.052Z,-90
2016-08-06T06:29:33.130Z,-90
2016-08-06T06:30:33.128Z,-90
2016-08-06T06:32:33.176Z,-90
2016-08-06T06:33:33.161Z,-90
2016-08-06T06:34:33.108Z,-90
2016-08-06T06:35:33.085Z,-90
2016-08-06T06:36:33.147Z,-90
2016-08-06T06:37:33.098Z,-90
2016-08-06T06:38:33.179Z,-90
2016-08-06T06:39:33.155Z,-90
2016-08-06T06:40:33.204Z,-90
2016-08-06T06:41:33.184Z,-90
2016-08-06T06:42:33.109Z,-89
2016-08-06T06:43:33.192Z,-90
2016-08-06T06:44:33.249Z,-90
2016-08-06T06:45:33.181Z,-90
2016-08-06T06:46:33.190Z,-90
2016-08-06T06:47:33.111Z,-91
2016-08-06T06:48:33.201Z,-90
2016-08-06T06:49:33.109Z,-90
2016-08-06T06:50:33.262Z,-90
2016-08-06T06:51:33.125Z,-89
2016-08-06T06:52:33.201Z,-90
2016-08-06T06:53:33.136Z,-90
2016-08-06T06:54:33.138Z,-88
2016-08-06T06:55:33.281Z,-89
2016-08-06T06:56:33.250Z,-89
2016-08-06T06:57:33.139Z,-89
2016-08-06T06:58:33.157Z,-89
2016-08-06T06:59:33.218Z,-89
2016-08-06T07:00:33.067Z,-89
2016-08-06T07:01:33.232Z,-89
2016-08-06T07:02:33.227Z,-89
2016-08-06T07:03:33.156Z,-89
2016-08-06T07:04:33.239Z,-89
2016-08-06T07:05:33.168Z,-88
2016-08-06T07:06:33.323Z,-89
2016-08-06T07:07:33.251Z,-89
2016-08-06T07:08:33.181Z,-89
2016-08-06T07:09:33.168Z,-89
2016-08-06T07:10:33.190Z,-89
2016-08-06T07:11:33.224Z,-90
2016-08-06T07:12:33.125Z,-89
2016-08-06T07:13:33.352Z,-89
2016-08-06T07:14:33.194Z,-89
2016-08-06T07:15:33.114Z,-89
2016-08-06T07:16:33.206Z,-89
2016-08-06T07:17:33.122Z,-90
2016-08-06T07:18:33.280Z,-89
2016-08-06T07:19:33.199Z,-90
2016-08-06T07:20:33.295Z,-90
2016-08-06T07:21:33.143Z,-91
2016-08-06T07:22:33.274Z,-90
2016-08-06T07:23:33.222Z,-90
2016-08-06T07:24:33.222Z,-90
2016-08-06T07:25:33.292Z,-89
2016-08-06T07:26:33.310Z,-91
2016-08-06T07:27:33.219Z,-90
2016-08-06T07:28:33.301Z,-91
2016-08-06T07:29:33.232Z,-89
2016-08-06T07:30:33.230Z,-89
2016-08-06T07:31:33.303Z,-91
2016-08-06T07:32:33.333Z,-90
2016-08-06T07:33:33.330Z,-89
2016-08-06T07:34:33.410Z,-88
2016-08-06T07:35:33.330Z,-88
2016-08-06T07:36:33.168Z,-88
2016-08-06T07:37:33.414Z,-89
2016-08-06T07:38:33.347Z,-88
2016-08-06T07:39:33.265Z,-89
2016-08-06T07:40:33.359Z,-89
2016-08-06T07:41:33.304Z,-88
2016-08-06T07:42:33.205Z,-89
2016-08-06T07:43:33.366Z,-88
2016-08-06T07:44:33.369Z,-89
2016-08-06T07:45:33.294Z,-89
2016-08-06T07:46:33.218Z,-89
2016-08-06T07:47:33.371Z,-89
2016-08-06T07:48:33.457Z,-89
2016-08-06T07:49:33.450Z,-89
2016-08-06T07:50:33.378Z,-89
2016-08-06T07:51:33.478Z,-89
2016-08-06T07:52:33.450Z,-88
2016-08-06T07:53:33.232Z,-88
2016-08-06T07:54:33.235Z,-89
2016-08-06T07:55:33.469Z,-88
2016-08-06T07:56:33.306Z,-89
2016-08-06T07:57:33.593Z,-89
2016-08-06T07:58:33.408Z,-89
2016-08-06T07:59:33.338Z,-89
2016-08-06T08:00:33.395Z,-88
2016-08-06T08:01:33.342Z,-88
2016-08-06T08:02:33.350Z,-88
2016-08-06T08:03:33.410Z,-88
2016-08-06T08:04:33.434Z,-89
2016-08-06T08:05:33.353Z,-88
2016-08-06T08:06:33.347Z,-89
2016-08-06T08:07:33.346Z,-90
2016-08-06T08:08:33.447Z,-91
2016-08-06T08:09:33.506Z,-90
2016-08-06T08:10:33.443Z,-90
2016-08-06T08:11:33.287Z,-90
2016-08-06T08:12:33.275Z,-90
2016-08-06T08:13:33.511Z,-90
2016-08-06T08:14:33.469Z,-90
2016-08-06T08:15:33.365Z,-89
2016-08-06T08:16:33.292Z,-88
2016-08-06T08:17:33.456Z,-89
2016-08-06T08:18:33.315Z,-88
2016-08-06T08:19:33.373Z,-89
2016-08-06T08:20:33.302Z,-88
2016-08-06T08:21:33.463Z,-88
2016-08-06T08:22:33.394Z,-89
2016-08-06T08:23:33.403Z,-89
2016-08-06T08:24:33.466Z,-89
2016-08-06T08:25:33.456Z,-86
2016-08-06T08:26:33.488Z,-88
2016-08-06T08:27:33.479Z,-88
2016-08-06T08:28:33.486Z,-89
2016-08-06T08:29:33.485Z,-88
2016-08-06T08:30:33.338Z,-89
2016-08-06T08:31:33.413Z,-88
2016-08-06T08:32:33.497Z,-89
2016-08-06T08:33:33.450Z,-88
2016-08-06T08:34:33.498Z,-89
2016-08-06T08:35:33.433Z,-89
2016-08-06T08:36:33.439Z,-89
2016-08-06T08:49:34.491Z,-89
2016-08-06T08:49:41.527Z,-88
2016-08-06T08:50:41.557Z,-87
2016-08-06T08:51:41.448Z,-88
2016-08-06T08:52:41.308Z,-88
2016-08-06T08:53:41.536Z,-87
2016-08-06T08:54:41.372Z,-88
2016-08-06T08:55:41.386Z,-87
2016-08-06T08:56:41.467Z,-88
2016-08-06T08:57:41.673Z,-88
2016-08-06T08:58:41.323Z,-89
2016-08-06T08:59:41.392Z,-88
2016-08-06T09:00:41.469Z,-89
2016-08-06T09:01:41.407Z,-89
2016-08-06T09:02:41.483Z,-89
2016-08-06T09:03:41.408Z,-89
2016-08-06T09:04:41.422Z,-89
2016-08-06T09:05:41.584Z,-89
2016-08-06T09:06:41.536Z,-89
2016-08-06T09:07:41.429Z,-89
2016-08-06T09:08:41.436Z,-89
2016-08-06T09:09:41.507Z,-90
2016-08-06T09:10:41.498Z,-90
2016-08-06T09:11:41.442Z,-89
2016-08-06T09:12:41.446Z,-90
2016-08-06T09:13:41.365Z,-90
2016-08-06T09:14:41.374Z,-90
2016-08-06T09:15:41.598Z,-88
2016-08-06T09:16:41.525Z,-89
2016-08-06T09:17:41.361Z,-90
2016-08-06T09:18:41.539Z,-90
2016-08-06T09:19:41.529Z,-89
2016-08-06T09:20:41.385Z,-89
2016-08-06T09:21:41.537Z,-90
2016-08-06T09:22:41.650Z,-90
2016-08-06T09:23:41.479Z,-90
2016-08-06T09:24:41.623Z,-89
2016-08-06T09:25:41.392Z,-89
2016-08-06T09:26:41.549Z,-90
2016-08-06T09:27:41.557Z,-89
2016-08-06T09:28:41.487Z,-90
2016-08-06T09:29:41.483Z,-90
2016-08-06T09:30:41.520Z,-89
2016-08-06T09:31:41.569Z,-88
2016-08-06T09:32:41.495Z,-90
2016-08-06T09:33:41.634Z,-90
2016-08-06T09:34:41.536Z,-89
2016-08-06T09:35:41.585Z,-89
2016-08-06T09:36:41.577Z,-89
2016-08-06T09:37:41.435Z,-90
2016-08-06T09:38:41.798Z,-89
2016-08-06T09:39:41.589Z,-90
2016-08-06T09:40:41.505Z,-89
2016-08-06T09:41:41.669Z,-89
2016-08-06T09:42:41.437Z,-90
2016-08-06T09:43:41.677Z,-89
2016-08-06T09:44:41.526Z,-90
2016-08-06T09:45:41.514Z,-89
2016-08-06T09:46:41.531Z,-90
2016-08-06T09:47:41.581Z,-90
2016-08-06T09:48:41.547Z,-89
2016-08-06T09:49:41.466Z,-89
2016-08-06T09:50:41.529Z,-90
2016-08-06T09:51:41.623Z,-90
2016-08-06T09:52:41.635Z,-90
2016-08-06T09:53:41.547Z,-90
2016-08-06T09:54:41.686Z,-91
2016-08-06T09:55:41.483Z,-89
2016-08-06T09:56:41.627Z,-89
2016-08-06T09:57:41.838Z,-90
2016-08-06T09:58:41.644Z,-90
2016-08-06T09:59:41.586Z,-90
2016-08-06T10:00:41.644Z,-89
2016-08-06T10:01:41.496Z,-91
2016-08-06T10:02:41.645Z,-89
2016-08-06T10:03:41.586Z,-90
2016-08-06T10:04:41.666Z,-89
2016-08-06T10:05:41.518Z,-90
2016-08-06T10:06:41.600Z,-90
2016-08-06T10:07:41.594Z,-90
2016-08-06T10:08:41.674Z,-89
2016-08-06T10:09:41.518Z,-91
2016-08-06T10:10:41.806Z,-90
2016-08-06T10:11:41.682Z,-90
2016-08-06T10:12:41.680Z,-90
2016-08-06T10:13:41.617Z,-90
2016-08-06T10:14:41.680Z,-90
2016-08-06T10:15:41.706Z,-90
2016-08-06T10:16:41.692Z,-89
2016-08-06T10:17:41.778Z,-90
2016-08-06T10:18:41.720Z,-88
2016-08-06T10:19:41.691Z,-90
2016-08-06T10:20:41.707Z,-89
2016-08-06T10:21:41.571Z,-91
2016-08-06T10:22:41.767Z,-89
2016-08-06T10:23:41.810Z,-90
2016-08-06T10:24:41.664Z,-89
2016-08-06T10:25:41.640Z,-90
2016-08-06T10:26:41.860Z,-90
2016-08-06T10:27:41.733Z,-90
2016-08-06T10:28:41.647Z,-91
2016-08-06T10:29:41.675Z,-90
2016-08-06T10:30:41.813Z,-90
2016-08-06T10:31:41.831Z,-90
2016-08-06T10:32:41.474Z,-90
2016-08-06T10:33:41.826Z,-89
2016-08-06T10:34:41.771Z,-90
2016-08-06T10:35:41.833Z,-89
2016-08-06T10:36:41.788Z,-90
2016-08-06T10:37:41.849Z,-89
2016-08-06T10:38:41.688Z,-89
2016-08-06T10:39:41.696Z,-89
2016-08-06T10:40:41.709Z,-90
2016-08-06T10:41:41.753Z,-89
2016-08-06T10:42:41.878Z,-88
2016-08-06T10:43:41.698Z,-90
2016-08-06T10:44:41.797Z,-90
2016-08-06T10:45:41.696Z,-89
2016-08-06T10:46:41.700Z,-90
2016-08-06T10:47:41.523Z,-90
2016-08-06T10:48:41.784Z,-89
2016-08-06T10:49:41.809Z,-90
2016-08-06T10:50:41.883Z,-89
2016-08-06T10:51:41.801Z,-89
2016-08-06T10:52:41.712Z,-89
2016-08-06T10:53:41.720Z,-90
2016-08-06T10:54:41.817Z,-90
2016-08-06T10:55:41.883Z,-89
2016-08-06T10:56:41.668Z,-90
2016-08-06T10:57:42.155Z,-89
2016-08-06T10:58:42.082Z,-90
2016-08-06T10:59:41.807Z,-90
2016-08-06T11:00:41.739Z,-90
2016-08-06T11:01:41.753Z,-90
2016-08-06T11:03:41.777Z,-90
2016-08-06T11:04:41.683Z,-90
2016-08-06T11:05:41.848Z,-89
2016-08-06T11:06:41.774Z,-89
2016-08-06T11:07:41.920Z,-90
2016-08-06T11:08:41.856Z,-89
2016-08-06T11:09:41.769Z,-89
2016-08-06T11:10:41.701Z,-89
2016-08-06T11:11:41.846Z,-89
2016-08-06T11:12:41.855Z,-89
2016-08-06T11:13:41.695Z,-90
2016-08-06T11:26:42.777Z,-89
2016-08-06T11:26:49.667Z,-90
2016-08-06T11:27:49.805Z,-89
2016-08-06T11:28:49.752Z,-89
2016-08-06T11:29:49.676Z,-90
2016-08-06T11:30:49.759Z,-89
2016-08-06T11:31:49.763Z,-89
2016-08-06T11:33:49.760Z,-89
2016-08-06T11:34:49.750Z,-89
2016-08-06T11:35:49.696Z,-89
2016-08-06T11:36:49.860Z,-89
2016-08-06T11:37:49.688Z,-89
2016-08-06T11:38:49.851Z,-89
2016-08-06T11:39:49.768Z,-89
2016-08-06T11:40:49.789Z,-90
2016-08-06T11:41:49.637Z,-90
2016-08-06T11:42:49.814Z,-90
2016-08-06T11:43:49.879Z,-89
2016-08-06T11:44:49.789Z,-90
2016-08-06T11:45:49.800Z,-89
2016-08-06T11:46:49.731Z,-90
2016-08-06T11:48:49.830Z,-89
2016-08-06T11:49:49.736Z,-89
2016-08-06T11:50:49.809Z,-90
2016-08-06T11:51:49.800Z,-89
2016-08-06T11:52:49.671Z,-89
2016-08-06T11:53:49.749Z,-90
2016-08-06T11:54:49.812Z,-90
2016-08-06T11:55:49.674Z,-91
2016-08-06T11:56:49.758Z,-91
2016-08-06T11:57:50.046Z,-89
2016-08-06T11:58:49.758Z,-90
2016-08-06T11:59:49.752Z,-90
2016-08-06T12:00:49.751Z,-90
2016-08-06T12:01:49.784Z,-89
2016-08-06T12:02:49.837Z,-86
2016-08-06T12:03:49.760Z,-87
2016-08-06T12:04:49.717Z,-85
2016-08-06T12:05:49.850Z,-88
2016-08-06T12:06:49.849Z,-92
2016-08-06T12:07:49.779Z,-91
2016-08-06T12:08:49.782Z,-91
2016-08-06T12:09:49.775Z,-91
2016-08-06T12:10:49.719Z,-89
2016-08-06T12:11:49.805Z,-89
2016-08-06T12:12:49.873Z,-88
2016-08-06T12:13:49.814Z,-86
2016-08-06T12:14:49.826Z,-86
2016-08-06T12:15:49.882Z,-87
2016-08-06T12:16:49.960Z,-86
2016-08-06T12:17:49.725Z,-86
2016-08-06T12:18:49.825Z,-86
2016-08-06T12:19:49.890Z,-87
2016-08-06T12:20:49.759Z,-87
2016-08-06T12:21:49.749Z,-87
2016-08-06T12:22:49.742Z,-86
2016-08-06T12:23:49.890Z,-87
2016-08-06T12:24:49.830Z,-87
2016-08-06T12:25:49.831Z,-87
2016-08-06T12:26:49.978Z,-87
2016-08-06T12:27:49.909Z,-87
2016-08-06T12:28:49.830Z,-87
2016-08-06T12:29:50.012Z,-87
2016-08-06T12:30:49.848Z,-87
2016-08-06T12:31:49.855Z,-88
2016-08-06T12:32:49.950Z,-88
2016-08-06T12:33:49.959Z,-88
2016-08-06T12:34:49.863Z,-88
2016-08-06T12:35:49.931Z,-88
2016-08-06T12:36:50.026Z,-88
2016-08-06T12:37:50.019Z,-88
2016-08-06T12:38:50.017Z,-88
2016-08-06T12:39:49.959Z,-88
2016-08-06T12:40:49.819Z,-88
2016-08-06T12:41:49.872Z,-87
2016-08-06T12:42:49.975Z,-87
2016-08-06T12:43:49.880Z,-87
2016-08-06T12:44:49.980Z,-87
2016-08-06T12:45:49.833Z,-88
2016-08-06T12:46:50.004Z,-88
2016-08-06T12:47:49.909Z,-88
2016-08-06T12:48:50.045Z,-89
2016-08-06T12:49:49.901Z,-90
2016-08-06T12:50:49.858Z,-91
2016-08-06T12:51:49.839Z,-91
2016-08-06T12:52:50.068Z,-90
2016-08-06T12:53:49.990Z,-91
2016-08-06T12:54:49.984Z,-91
2016-08-06T12:55:49.926Z,-91
2016-08-06T12:56:49.995Z,-91
2016-08-06T12:57:50.211Z,-92
2016-08-06T12:58:49.851Z,-92
2016-08-06T12:59:49.943Z,-91
2016-08-06T13:00:49.920Z,-92
2016-08-06T13:01:49.948Z,-91
2016-08-06T13:02:50.006Z,-92
2016-08-06T13:03:50.104Z,-90
2016-08-06T13:04:50.043Z,-90
2016-08-06T13:05:49.872Z,-92
2016-08-06T13:06:49.960Z,-93
2016-08-06T13:07:49.956Z,-92
2016-08-06T13:08:49.959Z,-92
2016-08-06T13:09:49.971Z,-92
2016-08-06T13:10:49.963Z,-93
2016-08-06T13:11:50.132Z,-93
2016-08-06T13:12:49.968Z,-94
2016-08-06T13:13:50.058Z,-94
2016-08-06T13:14:50.071Z,-94
2016-08-06T13:15:49.995Z,-95
2016-08-06T13:16:49.992Z,-93
2016-08-06T13:17:49.933Z,-93
2016-08-06T13:18:50.066Z,-94
2016-08-06T13:19:50.087Z,-93
2016-08-06T13:20:49.925Z,-93
2016-08-06T13:21:49.985Z,-92
2016-08-06T13:22:49.995Z,-91
2016-08-06T13:23:50.155Z,-93
2016-08-06T13:24:50.145Z,-93
2016-08-06T13:25:50.072Z,-92
2016-08-06T13:26:49.951Z,-92
2016-08-06T13:27:50.011Z,-93
2016-08-06T13:28:50.088Z,-93
2016-08-06T13:29:50.082Z,-93
2016-08-06T13:30:50.014Z,-93
2016-08-06T13:31:50.119Z,-93
2016-08-06T13:32:50.197Z,-92
2016-08-06T13:33:49.962Z,-92
2016-08-06T13:34:50.110Z,-92
2016-08-06T13:35:50.132Z,-91
2016-08-06T13:36:50.127Z,-92
2016-08-06T13:37:50.201Z,-91
2016-08-06T13:38:50.052Z,-91
2016-08-06T13:39:50.139Z,-92
2016-08-06T13:40:50.118Z,-91
2016-08-06T13:41:50.140Z,-91
2016-08-06T13:42:49.990Z,-91
2016-08-06T13:43:50.226Z,-91
2016-08-06T13:44:50.278Z,-91
2016-08-06T13:45:50.059Z,-91
2016-08-06T13:46:50.030Z,-91
2016-08-06T13:47:50.010Z,-91
2016-08-06T13:48:50.170Z,-91
2016-08-06T13:49:50.328Z,-91
2016-08-06T13:50:50.214Z,-91
2016-08-06T13:51:50.002Z,-91
2016-08-06T13:52:50.188Z,-90
2016-08-06T13:53:50.025Z,-92
2016-08-06T13:54:50.098Z,-92
2016-08-06T13:55:50.101Z,-92
2016-08-06T13:56:50.033Z,-92
2016-08-06T13:57:50.363Z,-92
2016-08-06T13:58:50.118Z,-91
2016-08-06T13:59:50.115Z,-91
2016-08-06T14:00:50.198Z,-90
2016-08-06T14:01:50.120Z,-90
2016-08-06T14:02:50.280Z,-91
2016-08-06T14:03:50.275Z,-90
2016-08-06T14:04:50.131Z,-90
2016-08-06T14:05:50.996Z,-89
2016-08-06T14:06:50.204Z,-90
2016-08-06T14:07:50.125Z,-90
2016-08-06T14:08:50.118Z,-91
2016-08-06T14:09:50.144Z,-91
2016-08-06T14:10:50.047Z,-91
2016-08-06T14:11:50.067Z,-91
2016-08-06T14:12:50.062Z,-90
2016-08-06T14:13:50.152Z,-90
2016-08-06T14:14:50.227Z,-90
2016-08-06T14:15:50.147Z,-90
2016-08-06T14:16:50.333Z,-90
2016-08-06T14:17:50.161Z,-89
2016-08-06T14:19:50.173Z,-90